Time;durP1;ratioP1;P1;durP2;ratioP2;P2;SDS_P1;SDS_P2;PMS_P1;PMS_P2;Temp;Humidity;BMP_temperature;BMP_pressure;BME280_temperature;BME280_humidity;BME280_pressure;Samples;Min_cycle;Max_cycle;Signal;HPM_P1;HPM_P2
2022/04/18 00:02:05;;;;;;;29.90;17.30;;;;;;;12.70;83.36;100782.16;4810620;29;20499;-75
2022/04/18 00:04:31;;;;;;;32.38;20.25;;;;;;;12.64;86.52;100777.75;4795773;29;20117;-75
2022/04/18 00:06:57;;;;;;;26.60;15.90;;;;;;;12.71;84.36;100774.63;4827258;29;20122;-75
2022/04/18 00:09:22;;;;;;;32.85;20.05;;;;;;;12.68;86.54;100778.00;4827094;29;20034;-75
2022/04/18 00:11:48;;;;;;;27.40;16.30;;;;;;;12.69;83.85;100780.47;4795785;29;20041;-75
2022/04/18 00:14:13;;;;;;;33.50;20.13;;;;;;;12.68;86.31;100767.69;4795506;29;20123;-75
2022/04/18 00:16:39;;;;;;;26.77;16.58;;;;;;;12.69;83.92;100774.06;4816666;29;20091;-75
2022/04/18 00:19:05;;;;;;;27.13;17.85;;;;;;;12.69;85.29;100762.94;4809238;29;20038;-75
2022/04/18 00:21:31;;;;;;;28.98;16.88;;;;;;;12.59;85.92;100772.28;4794712;29;20041;-75
2022/04/18 00:23:56;;;;;;;26.50;16.67;;;;;;;12.59;86.41;100763.94;4826806;29;20039;-75
2022/04/18 00:26:22;;;;;;;29.95;17.52;;;;;;;12.61;85.47;100760.81;4810742;29;20042;-75
2022/04/18 00:28:48;;;;;;;29.23;17.85;;;;;;;12.62;85.55;100757.75;4810489;29;20547;-75
2022/04/18 00:31:13;;;;;;;27.40;18.23;;;;;;;12.53;87.21;100753.97;4792952;29;20039;-75
2022/04/18 00:33:39;;;;;;;23.80;16.02;;;;;;;12.58;86.01;100750.28;4794001;29;20459;-75
2022/04/18 00:36:05;;;;;;;29.30;18.42;;;;;;;12.49;88.26;100747.34;4810676;29;20064;-75
2022/04/18 00:38:30;;;;;;;34.67;21.33;;;;;;;12.30;91.94;100747.34;4810555;29;20551;-75
2022/04/18 00:40:57;;;;;;;26.75;15.55;;;;;;;12.45;86.51;100749.06;4810583;29;20110;-75
2022/04/18 00:43:40;;;;;;;23.17;15.40;;;;;;;12.52;85.71;100746.75;4811912;29;20106;-75
2022/04/18 00:46:07;;;;;;;24.55;16.60;;;;;;;12.45;88.67;100746.28;4798874;29;20622;-75
2022/04/18 00:48:32;;;;;;;22.40;15.32;;;;;;;12.48;86.93;100743.75;4830141;29;20113;-75
2022/04/18 00:50:58;;;;;;;23.33;14.18;;;;;;;12.51;84.80;100745.94;4813882;29;20038;-76
2022/04/18 00:53:23;;;;;;;20.38;13.93;;;;;;;12.53;85.33;100745.59;4814001;29;20034;-75
2022/04/18 00:55:49;;;;;;;25.05;13.80;;;;;;;12.52;85.71;100743.97;4791922;29;20035;-75
2022/04/18 00:58:14;;;;;;;24.00;14.95;;;;;;;12.46;87.81;100747.97;4814045;29;20034;-75
2022/04/18 01:00:39;;;;;;;19.75;13.38;;;;;;;12.53;85.37;100742.81;4830237;29;20046;-76
2022/04/18 01:03:05;;;;;;;22.02;12.90;;;;;;;12.50;86.13;100746.22;4799535;29;20038;-75
2022/04/18 01:05:31;;;;;;;19.10;12.30;;;;;;;12.51;85.66;100745.09;4813881;29;20030;-75
2022/04/18 01:07:56;;;;;;;20.63;13.23;;;;;;;12.43;87.83;100749.38;4797163;29;20050;-75
2022/04/18 01:10:22;;;;;;;16.50;11.35;;;;;;;12.42;87.04;100753.28;4798332;29;20030;-75
2022/04/18 01:12:47;;;;;;;19.17;12.57;;;;;;;12.42;87.26;100736.56;4813697;29;20035;-75
2022/04/18 01:15:13;;;;;;;16.23;10.50;;;;;;;12.44;86.14;100745.47;4796756;29;20038;-75
2022/04/18 01:17:38;;;;;;;16.10;11.05;;;;;;;12.44;86.06;100745.47;4808163;29;20057;-75
2022/04/18 01:20:04;;;;;;;16.33;10.30;;;;;;;12.40;86.38;100750.00;4829795;29;20480;-75
2022/04/18 01:22:30;;;;;;;12.65;9.57;;;;;;;12.40;86.46;100750.00;4829910;29;20035;-75
2022/04/18 01:30:27;;;;;;;12.15;8.55;;;;;;;12.29;87.38;100746.53;4801321;29;20066;-75
2022/04/18 01:32:52;;;;;;;12.07;8.00;;;;;;;12.22;87.95;100754.41;4804600;29;20484;-75
2022/04/18 01:35:18;;;;;;;12.38;8.00;;;;;;;12.19;87.47;100752.22;4829389;29;20090;-75
2022/04/18 01:37:43;;;;;;;12.23;8.30;;;;;;;12.16;87.93;100752.00;4798480;29;20031;-75
2022/04/18 01:40:09;;;;;;;11.77;8.45;;;;;;;12.03;90.33;100745.19;4813333;29;20022;-75
2022/04/18 01:42:34;;;;;;;16.77;10.02;;;;;;;11.94;92.33;100749.78;4813424;29;20042;-75
2022/04/18 01:45:00;;;;;;;15.00;8.50;;;;;;;11.88;91.52;100735.09;4796774;29;20431;-75
2022/04/18 01:47:27;;;;;;;14.15;9.68;;;;;;;11.82;92.20;100733.47;4824870;29;20509;-75
2022/04/18 01:49:52;;;;;;;13.23;8.95;;;;;;;11.83;91.44;100730.38;4812910;29;20499;-75
2022/04/18 01:52:18;;;;;;;14.98;9.50;;;;;;;11.76;92.15;100741.06;4829336;29;20109;-75
2022/04/18 01:54:43;;;;;;;15.40;9.82;;;;;;;11.74;93.24;100729.38;4812118;29;20035;-75
2022/04/18 01:57:09;;;;;;;12.80;8.25;;;;;;;11.76;92.07;100724.34;4812936;29;20043;-75
2022/04/18 01:59:34;;;;;;;12.60;8.40;;;;;;;11.66;94.23;100724.47;4812862;29;20049;-75
2022/04/18 02:02:00;;;;;;;10.73;8.02;;;;;;;11.68;93.83;100716.66;4812367;29;20045;-75
2022/04/18 02:04:25;;;;;;;13.98;9.30;;;;;;;11.50;96.21;100718.25;4829077;29;20030;-76
2022/04/18 02:06:50;;;;;;;12.93;8.57;;;;;;;11.51;95.17;100716.31;4812940;29;20377;-75
2022/04/18 02:09:16;;;;;;;13.55;8.98;;;;;;;11.45;95.73;100709.13;4828736;29;20087;-75
2022/04/18 02:11:41;;;;;;;13.63;8.82;;;;;;;11.46;94.86;100708.03;4829027;29;20045;-75
2022/04/18 02:14:07;;;;;;;12.27;8.23;;;;;;;11.38;95.21;100706.72;4828581;29;20042;-77
2022/04/18 02:16:32;;;;;;;11.07;7.07;;;;;;;11.43;93.74;100703.06;4819059;29;20119;-75
2022/04/18 02:18:58;;;;;;;10.10;6.88;;;;;;;11.39;93.31;100706.44;4826314;29;20091;-75
2022/04/18 02:21:23;;;;;;;10.00;7.20;;;;;;;11.44;92.74;100699.97;4828721;29;20042;-75
2022/04/18 02:23:49;;;;;;;9.45;6.65;;;;;;;11.40;93.22;100694.16;4812348;29;20065;-75
2022/04/18 02:26:15;;;;;;;11.85;6.70;;;;;;;11.39;91.97;100698.09;4828760;29;20044;-75
2022/04/18 02:28:41;;;;;;;13.32;6.90;;;;;;;11.36;92.11;100692.25;4828653;29;20066;-75
2022/04/18 02:31:07;;;;;;;11.30;6.70;;;;;;;11.35;92.06;100697.00;4821652;29;20045;-75
2022/04/18 02:33:33;;;;;;;10.45;6.00;;;;;;;11.36;91.27;100697.81;4795219;29;20026;-75
2022/04/18 02:36:01;;;;;;;9.70;5.93;;;;;;;11.40;90.15;100694.16;4797234;29;20086;-75
2022/04/18 02:38:26;;;;;;;9.82;6.60;;;;;;;11.31;92.79;100690.38;4797473;29;20038;-75
2022/04/18 02:40:52;;;;;;;9.23;6.75;;;;;;;11.36;91.29;100686.69;4812214;29;20038;-75
2022/04/18 02:43:17;;;;;;;10.60;6.20;;;;;;;11.35;90.90;100691.44;4812238;29;20030;-75
2022/04/18 02:45:43;;;;;;;11.10;6.95;;;;;;;11.28;92.35;100685.41;4812119;29;20045;-75
2022/04/18 02:48:09;;;;;;;11.35;7.20;;;;;;;11.30;92.13;100688.72;4796622;29;20042;-75
2022/04/18 02:50:34;;;;;;;8.75;5.93;;;;;;;11.37;89.53;100686.41;4819237;29;20056;-75
2022/04/18 02:53:00;;;;;;;9.02;6.00;;;;;;;11.33;90.77;100682.56;4797199;29;20090;-75
2022/04/18 02:55:25;;;;;;;7.55;5.65;;;;;;;11.38;88.55;100685.28;4782161;29;20037;-75
2022/04/18 02:57:52;;;;;;;10.52;6.63;;;;;;;11.28;91.37;100685.41;4781729;29;20078;-75
2022/04/18 03:00:17;;;;;;;13.57;7.20;;;;;;;11.20;91.79;100680.50;4812173;29;20081;-75
2022/04/18 03:02:43;;;;;;;12.23;8.05;;;;;;;11.05;95.34;100681.47;4827750;29;20485;-75
2022/04/18 03:05:09;;;;;;;11.68;6.18;;;;;;;11.12;91.20;100679.19;4796760;29;20070;-75
2022/04/18 03:07:35;;;;;;;10.45;5.95;;;;;;;11.19;90.97;100684.38;4811909;29;20035;-76
2022/04/18 03:10:00;;;;;;;9.90;6.32;;;;;;;11.22;90.07;100691.31;4811440;29;20046;-76
2022/04/18 03:12:26;;;;;;;9.95;6.05;;;;;;;11.21;90.90;100682.16;4796899;29;20038;-76
2022/04/18 03:14:52;;;;;;;8.90;6.18;;;;;;;11.21;91.20;100684.09;4796484;29;20069;-76
2022/04/18 03:17:17;;;;;;;9.05;6.03;;;;;;;11.24;89.75;100684.34;4799155;29;20061;-76
2022/04/18 03:19:43;;;;;;;9.13;5.68;;;;;;;11.22;91.26;100681.00;4781855;29;20038;-76
2022/04/18 03:22:08;;;;;;;10.10;6.53;;;;;;;11.19;92.91;100681.59;4796476;29;20030;-75
2022/04/18 03:24:34;;;;;;;12.32;8.60;;;;;;;11.06;96.39;100685.06;4811381;29;20037;-76
2022/04/18 03:27:01;;;;;;;11.18;7.15;;;;;;;11.06;94.47;100676.72;4796244;29;20030;-75
2022/04/18 03:29:26;;;;;;;9.88;6.40;;;;;;;11.10;93.60;100677.81;4778413;29;20134;-75
2022/04/18 03:31:53;;;;;;;12.10;6.70;;;;;;;11.12;93.18;100683.91;4784133;29;20038;-75
2022/04/18 03:34:19;;;;;;;13.38;6.07;;;;;;;11.14;92.47;100676.09;4810686;29;20408;-75
2022/04/18 03:42:13;;;;;;;10.40;5.40;;;;;;;11.11;92.87;100673.91;4803921;29;20091;-75
2022/04/18 03:44:40;;;;;;;8.70;5.53;;;;;;;11.07;94.46;100679.22;4811405;29;20027;-75
2022/04/18 03:47:06;;;;;;;8.93;4.40;;;;;;;11.15;91.94;100673.03;4810997;29;20038;-75
2022/04/18 03:49:32;;;;;;;9.95;5.30;;;;;;;11.09;95.00;100678.94;4810961;29;20067;-75
2022/04/18 03:51:57;;;;;;;6.88;4.53;;;;;;;11.14;92.14;100685.28;4768977;29;20121;-75
2022/04/18 03:54:23;;;;;;;8.48;5.10;;;;;;;11.19;91.50;100685.19;4795976;29;20060;-75
2022/04/18 03:56:48;;;;;;;7.88;5.07;;;;;;;11.19;93.04;100689.94;4811423;29;20047;-75
2022/04/18 03:59:14;;;;;;;8.20;5.05;;;;;;;11.16;93.13;100684.97;4810846;29;20075;-75
2022/04/18 04:01:40;;;;;;;13.93;5.35;;;;;;;11.13;94.07;100693.91;4827520;29;20049;-76
2022/04/18 04:04:05;;;;;;;9.25;4.13;;;;;;;11.19;91.44;100690.75;4795609;29;20038;-76
2022/04/18 04:06:31;;;;;;;7.82;4.72;;;;;;;11.18;92.87;100691.06;4780888;29;20034;-76
2022/04/18 04:08:56;;;;;;;7.78;4.28;;;;;;;11.17;91.71;100690.25;4810621;29;20057;-75
2022/04/18 04:11:21;;;;;;;8.25;4.30;;;;;;;11.17;92.33;100692.19;4810956;29;20034;-75
2022/04/18 04:13:47;;;;;;;7.43;3.60;;;;;;;11.21;91.02;100684.09;4795762;29;20046;-76
2022/04/18 04:16:12;;;;;;;6.32;3.78;;;;;;;11.07;93.72;100689.53;4780898;29;20035;-76
2022/04/18 04:18:38;;;;;;;7.80;4.13;;;;;;;11.04;93.96;100690.09;4799160;29;20030;-76
2022/04/18 04:21:03;;;;;;;6.57;3.67;;;;;;;11.07;92.65;100695.09;4833057;29;20087;-76
2022/04/18 04:23:29;;;;;;;6.35;3.83;;;;;;;11.01;94.38;100691.53;4772139;29;20034;-76
2022/04/18 04:25:54;;;;;;;4.82;3.22;;;;;;;11.06;91.80;100694.25;4832981;29;20031;-76
2022/04/18 04:28:20;;;;;;;4.70;3.15;;;;;;;11.13;91.06;100696.69;4801552;29;20448;-76
2022/04/18 04:30:45;;;;;;;6.63;2.95;;;;;;;11.16;89.92;100696.09;4787150;29;20050;-76
2022/04/18 04:33:11;;;;;;;5.97;3.47;;;;;;;11.14;90.82;100695.56;4816375;29;20042;-76
2022/04/18 04:35:37;;;;;;;8.57;3.83;;;;;;;11.09;93.19;100698.41;4786470;29;20500;-75
2022/04/18 04:38:03;;;;;;;6.53;3.92;;;;;;;11.08;92.66;100696.72;4801593;29;20106;-76
2022/04/18 04:40:28;;;;;;;5.88;3.72;;;;;;;11.13;90.99;100702.25;4786536;29;20030;-76
2022/04/18 04:42:53;;;;;;;8.80;3.80;;;;;;;11.07;93.08;100700.63;4801408;29;20042;-76
2022/04/18 04:45:19;;;;;;;6.72;3.50;;;;;;;11.11;91.29;100696.97;4772014;29;20026;-76
2022/04/18 04:47:45;;;;;;;6.35;3.83;;;;;;;11.15;90.48;100700.00;4801494;29;20038;-76
2022/04/18 04:50:10;;;;;;;8.02;4.13;;;;;;;11.08;92.99;100703.09;4797968;29;20095;-75
2022/04/18 04:52:36;;;;;;;5.32;3.42;;;;;;;11.07;92.06;100711.75;4828133;29;20042;-75
2022/04/18 04:55:01;;;;;;;8.45;4.40;;;;;;;11.10;91.55;100700.06;4816464;29;20087;-75
2022/04/18 04:57:27;;;;;;;6.35;3.67;;;;;;;11.14;90.43;100704.75;4801214;29;20038;-75
2022/04/18 04:59:52;;;;;;;7.53;3.67;;;;;;;11.12;91.60;100709.75;4801483;29;20095;-75
2022/04/18 05:02:18;;;;;;;8.95;3.88;;;;;;;11.08;92.59;100708.66;4800832;29;20396;-75
2022/04/18 05:04:43;;;;;;;7.88;4.95;;;;;;;10.98;95.36;100719.03;4832953;29;20034;-75
2022/04/18 05:07:09;;;;;;;7.57;4.03;;;;;;;10.92;95.21;100710.78;4786224;29;20600;-76
2022/04/18 05:09:34;;;;;;;7.38;4.03;;;;;;;10.92;94.62;100718.25;4786518;29;20034;-76
2022/04/18 05:12:00;;;;;;;7.10;3.92;;;;;;;11.03;91.42;100721.78;4816326;29;20038;-76
2022/04/18 05:14:25;;;;;;;7.63;3.92;;;;;;;10.98;93.05;100719.91;4801231;29;20042;-76
2022/04/18 05:16:51;;;;;;;6.00;3.78;;;;;;;10.99;93.53;100718.78;4789297;29;20043;-76
2022/04/18 05:19:16;;;;;;;7.57;4.07;;;;;;;10.91;94.54;100725.78;4807788;29;20118;-76
2022/04/18 05:21:42;;;;;;;8.70;4.40;;;;;;;10.86;95.56;100716.66;4801354;29;20065;-77
2022/04/18 05:24:07;;;;;;;7.35;4.53;;;;;;;10.90;95.56;100728.88;4802816;29;20038;-77
2022/04/18 05:26:33;;;;;;;8.82;4.18;;;;;;;10.93;93.99;100722.72;4816279;29;20026;-77
2022/04/18 05:28:58;;;;;;;7.30;4.05;;;;;;;11.01;92.44;100724.03;4785156;29;20058;-77
2022/04/18 05:31:24;;;;;;;6.75;3.75;;;;;;;11.01;92.82;100724.03;4825611;29;20027;-77
2022/04/18 05:33:49;;;;;;;10.77;5.68;;;;;;;10.98;94.99;100724.59;4827476;29;20488;-77
2022/04/18 05:36:15;;;;;;;6.28;3.80;;;;;;;11.08;91.10;100724.53;4797929;29;20060;-77
2022/04/18 05:38:40;;;;;;;8.65;4.40;;;;;;;11.10;91.65;100728.66;4813246;29;20563;-76
2022/04/18 05:41:06;;;;;;;6.88;4.10;;;;;;;11.12;91.35;100725.63;4796663;29;20042;-76
2022/04/18 05:43:31;;;;;;;7.75;4.90;;;;;;;11.15;92.74;100727.81;4813467;29;20038;-76
2022/04/18 05:45:57;;;;;;;7.15;3.75;;;;;;;11.21;90.42;100729.41;4783364;29;20030;-76
2022/04/18 05:48:22;;;;;;;5.10;3.35;;;;;;;11.23;89.73;100727.16;4782894;29;20089;-76
2022/04/18 05:50:48;;;;;;;9.30;4.28;;;;;;;11.23;90.46;100732.72;4797703;29;20030;-76
2022/04/18 05:53:14;;;;;;;10.25;4.85;;;;;;;11.26;90.26;100732.13;4797061;29;20071;-76
2022/04/18 05:55:40;;;;;;;7.32;4.18;;;;;;;11.29;90.40;100734.34;4797888;29;20046;-76
2022/04/18 05:58:05;;;;;;;6.85;4.10;;;;;;;11.31;89.98;100737.66;4797954;29;20035;-76
2022/04/18 06:00:34;;;;;;;9.57;5.20;;;;;;;11.29;91.60;100731.56;4795909;29;20536;-76
2022/04/18 06:03:03;;;;;;;6.45;4.13;;;;;;;11.32;89.41;100728.19;4798422;29;20488;-76
2022/04/18 06:05:28;;;;;;;6.97;4.05;;;;;;;11.33;90.26;100732.59;4828965;29;20496;-76
2022/04/18 06:07:54;;;;;;;7.53;4.28;;;;;;;11.36;89.56;100740.34;4797773;29;20138;-76
2022/04/18 06:10:20;;;;;;;7.95;3.97;;;;;;;11.40;89.03;100735.06;4797571;29;20041;-76
2022/04/18 06:12:45;;;;;;;10.10;3.90;;;;;;;11.40;89.16;100735.88;4799765;29;20114;-76
2022/04/18 06:15:10;;;;;;;10.23;4.50;;;;;;;11.42;88.88;100735.56;4782523;29;20046;-77
2022/04/18 06:17:36;;;;;;;6.47;4.10;;;;;;;11.44;89.50;100743.63;4803511;29;20049;-76
2022/04/18 06:20:02;;;;;;;11.23;5.57;;;;;;;11.33;93.27;100746.50;4812532;29;20033;-77
2022/04/18 06:22:28;;;;;;;6.88;4.28;;;;;;;11.36;90.75;100742.31;4812782;29;20066;-76
2022/04/18 06:24:53;;;;;;;9.40;4.50;;;;;;;11.35;92.00;100747.06;4812631;29;20115;-77
2022/04/18 06:27:19;;;;;;;7.53;4.68;;;;;;;11.30;92.69;100746.28;4797313;29;20047;-77
2022/04/18 06:29:44;;;;;;;11.57;5.97;;;;;;;11.24;95.31;100745.50;4809372;29;20075;-76
2022/04/18 06:32:10;;;;;;;13.70;6.45;;;;;;;11.19;95.91;100753.88;4801339;29;20031;-77
2022/04/18 06:34:35;;;;;;;9.32;4.82;;;;;;;11.28;92.45;100748.50;4809275;29;20061;-75
2022/04/18 06:37:01;;;;;;;7.60;4.90;;;;;;;11.30;91.72;100752.66;4794304;29;20031;-77
2022/04/18 06:39:26;;;;;;;12.25;7.45;;;;;;;11.22;95.45;100761.63;4810290;29;20035;-78
2022/04/18 06:41:52;;;;;;;9.88;5.80;;;;;;;11.24;93.44;100762.19;4810061;29;20461;-77
2022/04/18 06:44:17;;;;;;;10.48;5.20;;;;;;;11.29;92.65;100759.34;4809313;29;20035;-77
2022/04/18 06:46:43;;;;;;;10.23;4.65;;;;;;;11.35;90.75;100762.91;4808917;29;20034;-76
2022/04/18 06:49:09;;;;;;;9.98;4.57;;;;;;;11.41;90.10;100764.50;4808849;29;20397;-76
2022/04/18 06:51:34;;;;;;;30.92;13.18;;;;;;;11.39;93.73;100753.69;4798147;29;20034;-73
2022/04/18 06:53:59;;;;;;;31.92;13.77;;;;;;;11.45;91.31;100756.41;4778958;29;20042;-73
2022/04/18 07:00:05;;;;;;;;;;;;;;;;;;;;;
2022/04/18 07:10:30;;;;;;;14.48;6.20;;;;;;;11.58;94.83;100766.84;4768346;30;20051;-81
2022/04/18 07:12:55;;;;;;;14.95;6.07;;;;;;;11.60;93.94;100768.22;4771492;30;20110;-81
2022/04/18 07:15:21;;;;;;;14.35;5.28;;;;;;;11.66;92.04;100763.41;4741772;30;20044;-81
2022/04/18 07:17:47;;;;;;;12.65;5.50;;;;;;;11.60;94.93;100770.16;4756495;30;20139;-81
2022/04/18 07:20:12;;;;;;;11.90;4.90;;;;;;;11.66;92.90;100765.38;4756582;30;20044;-82
2022/04/18 07:22:40;;;;;;;9.02;4.10;;;;;;;11.71;90.94;100765.31;4771449;30;20035;-77
2022/04/18 07:25:07;;;;;;;8.02;4.40;;;;;;;11.73;90.70;100775.03;4756297;30;20047;-74
2022/04/18 07:27:32;;;;;;;8.73;4.28;;;;;;;11.77;90.77;100770.53;4762768;30;20624;-74
2022/04/18 07:29:58;;;;;;;11.57;4.70;;;;;;;11.78;92.98;100768.56;4789092;30;20047;-73
2022/04/18 07:32:23;;;;;;;10.43;4.20;;;;;;;11.79;91.58;100768.28;4759557;30;20039;-73
2022/04/18 07:34:49;;;;;;;13.32;5.20;;;;;;;11.79;92.68;100764.69;4788926;30;20043;-73
2022/04/18 07:37:14;;;;;;;12.32;5.22;;;;;;;11.80;93.90;100769.94;4774137;30;20058;-72
2022/04/18 07:39:40;;;;;;;9.85;4.80;;;;;;;11.82;93.50;100767.69;4788861;30;20040;-72
2022/04/18 07:42:06;;;;;;;9.98;4.65;;;;;;;11.80;94.52;100780.22;4789031;30;20032;-73
2022/04/18 07:44:32;;;;;;;8.52;4.85;;;;;;;11.77;94.45;100773.31;4809108;29;20099;-73
2022/04/18 07:46:58;;;;;;;10.25;4.40;;;;;;;11.76;95.71;100774.44;4808971;29;20072;-74
2022/04/18 07:49:24;;;;;;;9.82;4.85;;;;;;;11.79;94.59;100773.03;4807859;29;20035;-74
2022/04/18 07:51:49;;;;;;;7.22;4.30;;;;;;;11.81;92.71;100773.53;4807634;29;20458;-74
2022/04/18 07:54:17;;;;;;;10.77;5.00;;;;;;;11.77;95.93;100776.09;4808667;29;20038;-74
2022/04/18 07:56:43;;;;;;;9.32;4.30;;;;;;;11.79;93.60;100779.41;4793201;29;20098;-74
2022/04/18 07:59:09;;;;;;;8.55;4.35;;;;;;;11.79;94.89;100779.41;4807962;29;20042;-74
2022/04/18 08:01:35;;;;;;;11.82;4.78;;;;;;;11.81;94.58;100781.88;4808803;29;20038;-74
2022/04/18 08:04:01;;;;;;;10.40;5.28;;;;;;;11.79;96.55;100784.97;4808943;29;20043;-74
2022/04/18 08:06:27;;;;;;;9.15;5.20;;;;;;;11.81;93.80;100779.94;4809075;29;20027;-74
2022/04/18 08:08:52;;;;;;;7.47;3.83;;;;;;;11.84;92.27;100776.56;4807362;29;20034;-73
2022/04/18 08:11:18;;;;;;;10.60;4.85;;;;;;;11.82;95.15;100784.38;4808929;29;20396;-73
2022/04/18 08:13:44;;;;;;;12.57;4.63;;;;;;;11.87;93.37;100788.25;4808946;29;20119;-74
2022/04/18 08:16:11;;;;;;;11.95;5.95;;;;;;;11.83;98.11;100782.44;4800816;29;20031;-73
2022/04/18 08:18:38;;;;;;;11.98;4.32;;;;;;;11.88;96.51;100787.16;4803619;29;20485;-74
2022/04/18 08:21:03;;;;;;;13.98;5.60;;;;;;;11.88;97.87;100781.56;4808767;29;20119;-73
2022/04/18 08:23:30;;;;;;;17.27;6.18;;;;;;;11.87;100.00;100783.53;4808895;29;20062;-74
2022/04/18 08:25:56;;;;;;;10.65;5.88;;;;;;;11.94;99.70;100785.94;4792789;29;20035;-73
2022/04/18 08:28:21;;;;;;;11.73;5.40;;;;;;;11.94;99.45;100791.53;4821088;29;20061;-74
2022/04/18 08:30:46;;;;;;;9.45;4.45;;;;;;;12.02;97.38;100785.31;4806092;29;20515;-74
2022/04/18 08:33:12;;;;;;;8.85;3.95;;;;;;;12.08;95.73;100787.72;4822183;29;20041;-74
2022/04/18 08:35:37;;;;;;;11.13;3.85;;;;;;;12.17;95.80;100789.84;4810558;29;20090;-74
2022/04/18 08:38:03;;;;;;;11.07;3.80;;;;;;;12.22;94.79;100782.25;4810696;29;20030;-74
2022/04/18 08:40:29;;;;;;;9.15;4.07;;;;;;;12.25;96.78;100789.19;4780579;29;20030;-74
2022/04/18 08:42:57;;;;;;;11.07;4.70;;;;;;;12.24;96.94;100788.34;4827019;29;20034;-74
2022/04/18 08:45:24;;;;;;;11.07;4.10;;;;;;;12.25;96.88;100792.78;4810551;29;20034;-74
2022/04/18 08:53:20;;;;;;;11.57;4.40;;;;;;;12.33;94.78;100788.50;4815725;29;20129;-74
2022/04/18 08:55:45;;;;;;;13.60;4.28;;;;;;;12.34;94.89;100790.19;4810373;29;20438;-73
2022/04/18 08:58:12;;;;;;;10.30;3.72;;;;;;;12.38;94.13;100790.41;4810569;29;20109;-73
2022/04/18 09:00:38;;;;;;;11.68;3.25;;;;;;;12.41;92.97;100784.25;4827018;29;20454;-73
2022/04/18 09:03:03;;;;;;;7.03;3.70;;;;;;;12.48;91.43;100784.69;4826524;29;20087;-74
2022/04/18 09:05:37;;;;;;;16.10;3.65;;;;;;;12.54;91.35;100789.06;4829377;29;20392;-74
2022/04/18 09:08:05;;;;;;;10.43;3.00;;;;;;;12.62;91.10;100793.13;4829954;29;20035;-74
2022/04/18 09:10:30;;;;;;;10.82;3.55;;;;;;;12.67;90.69;100788.28;4829669;29;20393;-73
2022/04/18 09:13:05;;;;;;;13.65;3.15;;;;;;;12.71;91.46;100791.34;4829683;29;20168;-73
2022/04/18 09:15:34;;;;;;;8.68;3.60;;;;;;;12.73;91.15;100798.25;4827665;29;20095;-73
2022/04/18 09:18:10;;;;;;;11.85;3.40;;;;;;;12.77;90.33;100789.28;4829860;29;20118;-74
2022/04/18 09:20:46;;;;;;;9.45;3.20;;;;;;;12.78;89.88;100790.94;4829640;29;20034;-74
2022/04/18 09:23:26;;;;;;;10.95;2.88;;;;;;;12.88;89.09;100788.00;4829420;29;20030;-75
2022/04/18 09:25:53;;;;;;;12.82;3.58;;;;;;;12.92;90.35;100786.25;4818513;29;20057;-74
2022/04/18 09:28:23;;;;;;;11.15;3.33;;;;;;;12.94;89.72;100787.63;4829342;29;20105;-74
2022/04/18 09:30:58;;;;;;;10.40;3.10;;;;;;;12.99;88.65;100783.09;4808726;29;20035;-74
2022/04/18 09:33:26;;;;;;;13.00;3.40;;;;;;;13.11;88.36;100781.47;4826109;29;20106;-74
2022/04/18 09:35:52;;;;;;;10.70;3.15;;;;;;;13.25;87.74;100777.91;4798634;29;20505;-74
2022/04/18 09:38:18;;;;;;;13.50;2.85;;;;;;;13.37;86.54;100773.56;4813000;29;20034;-74
2022/04/18 09:40:44;;;;;;;9.55;2.65;;;;;;;13.54;85.44;100772.97;4797888;29;20031;-74
2022/04/18 09:43:09;;;;;;;9.27;3.28;;;;;;;13.75;84.21;100769.78;4826816;29;20041;-74
2022/04/18 09:45:37;;;;;;;8.73;2.17;;;;;;;13.97;83.54;100772.66;4820029;29;20035;-74
2022/04/18 09:48:02;;;;;;;7.72;2.15;;;;;;;14.16;82.20;100775.34;4822164;29;20045;-74
2022/04/18 09:53:30;;;;;;;11.48;2.90;;;;;;;14.53;79.71;100760.31;4825953;29;20440;-74
2022/04/18 09:55:56;;;;;;;11.85;1.90;;;;;;;14.72;79.10;100756.53;4801429;29;20087;-75
2022/04/18 09:58:22;;;;;;;10.90;2.53;;;;;;;14.91;77.68;100754.38;4827259;29;20373;-74
2022/04/18 10:00:48;;;;;;;9.90;1.90;;;;;;;15.07;76.28;100752.03;4829017;29;20126;-74
2022/04/18 10:03:14;;;;;;;11.00;2.05;;;;;;;15.24;75.37;100742.94;4828530;29;20046;-74
2022/04/18 10:05:42;;;;;;;8.00;1.60;;;;;;;15.41;74.69;100751.41;4828823;29;20045;-75
2022/04/18 10:08:08;;;;;;;7.88;1.75;;;;;;;15.52;73.47;100751.16;4828792;29;20125;-74
2022/04/18 10:10:34;;;;;;;8.18;1.67;;;;;;;15.59;72.38;100754.31;4812697;29;20031;-75
2022/04/18 10:13:02;;;;;;;10.05;1.60;;;;;;;15.73;72.07;100745.84;4828781;29;20042;-76
2022/04/18 10:15:27;;;;;;;8.60;1.80;;;;;;;15.74;70.43;100742.72;4826411;29;20096;-77
2022/04/18 10:17:53;;;;;;;7.97;1.58;;;;;;;15.78;68.56;100742.88;4820668;29;20042;-78
2022/04/18 10:20:32;;;;;;;7.03;1.40;;;;;;;15.78;69.47;100738.13;4828781;29;20038;-76
2022/04/18 10:23:35;;;;;;;5.53;1.65;;;;;;;15.89;69.49;100738.66;4798351;29;20039;-80
2022/04/18 10:26:38;;;;;;;9.60;1.52;;;;;;;15.93;68.03;100733.22;4802604;29;20026;-74
2022/04/18 10:29:07;;;;;;;7.82;1.95;;;;;;;16.01;69.26;100735.22;4816057;29;20571;-74
2022/04/18 10:31:34;;;;;;;9.48;1.52;;;;;;;16.15;67.34;100730.31;4802988;29;20548;-74
2022/04/18 10:34:00;;;;;;;7.15;1.45;;;;;;;16.29;66.07;100730.16;4797264;29;20037;-74
2022/04/18 10:36:31;;;;;;;7.82;1.60;;;;;;;16.37;64.88;100732.16;4812331;29;20043;-74
2022/04/18 10:38:57;;;;;;;10.02;1.67;;;;;;;16.45;65.11;100727.72;4828420;29;20400;-74
2022/04/18 10:41:39;;;;;;;7.50;1.33;;;;;;;16.54;64.70;100728.53;4828626;29;20042;-74
2022/04/18 10:44:09;;;;;;;8.80;1.30;;;;;;;16.66;64.43;100733.50;4828615;29;20038;-74
2022/04/18 10:46:37;;;;;;;4.00;1.13;;;;;;;16.75;62.51;100731.53;4828397;29;20057;-74
2022/04/18 10:49:04;;;;;;;9.15;1.80;;;;;;;16.89;61.89;100725.78;4828414;29;20436;-74
2022/04/18 10:51:37;;;;;;;5.15;1.20;;;;;;;16.96;61.17;100731.69;4828362;29;20507;-74
2022/04/18 10:54:12;;;;;;;;;;;;;;;17.06;60.78;100719.31;4812321;29;20030;-75
2022/04/18 10:56:47;;;;;;;7.45;1.15;;;;;;;17.18;61.46;100725.06;4828150;29;20036;-75
2022/04/18 10:59:17;;;;;;;7.35;1.08;;;;;;;17.31;62.16;100723.22;4828240;29;20042;-74
2022/04/18 11:01:42;;;;;;;5.75;1.10;;;;;;;17.47;61.38;100723.50;4828017;29;20046;-74
2022/04/18 11:04:12;;;;;;;5.78;1.30;;;;;;;17.56;60.79;100716.69;4828031;29;20030;-74
2022/04/18 11:06:38;;;;;;;6.75;1.77;;;;;;;17.70;60.10;100718.47;4811812;29;20034;-74
2022/04/18 11:09:08;;;;;;;5.40;0.98;;;;;;;17.69;57.86;100708.38;4827992;29;20109;-74
2022/04/18 11:11:46;;;;;;;7.05;1.70;;;;;;;17.79;59.05;100702.41;4828221;29;20121;-74
2022/04/18 11:14:23;;;;;;;8.88;1.40;;;;;;;17.78;58.86;100701.59;4820752;29;20053;-75
2022/04/18 11:16:52;;;;;;;6.93;1.38;;;;;;;17.86;60.89;100699.91;4815782;29;20396;-74
2022/04/18 11:19:19;;;;;;;7.22;1.70;;;;;;;17.99;60.13;100695.19;4815831;29;20095;-74
2022/04/18 11:22:01;;;;;;;6.07;2.15;;;;;;;18.14;58.86;100691.00;4827926;29;20114;-75
2022/04/18 11:24:42;;;;;;;9.18;2.00;;;;;;;18.27;57.37;100687.88;4827956;29;20077;-75
2022/04/18 11:27:14;;;;;;;7.28;1.10;;;;;;;18.39;56.60;100692.78;4810617;29;20519;-74
2022/04/18 11:29:42;;;;;;;5.88;1.10;;;;;;;18.50;55.26;100693.19;4827637;29;20086;-74
2022/04/18 11:32:08;;;;;;;5.35;0.73;;;;;;;18.64;55.83;100693.75;4817866;29;20042;-74
2022/04/18 11:34:34;;;;;;;6.10;1.42;;;;;;;18.81;55.01;100697.59;4827654;29;20042;-74
2022/04/18 11:37:01;;;;;;;8.43;1.10;;;;;;;18.84;53.44;100700.53;4811136;29;20046;-75
2022/04/18 11:39:46;;;;;;;5.60;1.10;;;;;;;18.92;54.38;100693.19;4827868;29;20035;-76
2022/04/18 11:42:25;;;;;;;3.83;0.90;;;;;;;18.94;54.62;100688.88;4818088;29;20038;-75
2022/04/18 11:44:56;;;;;;;5.40;1.00;;;;;;;19.01;53.25;100688.28;4827616;29;20038;-75
2022/04/18 11:47:23;;;;;;;4.88;1.10;;;;;;;19.05;52.61;100682.78;4827423;29;20049;-75
2022/04/18 11:49:53;;;;;;;6.93;1.35;;;;;;;19.22;52.81;100679.75;4827332;29;20042;-75
2022/04/18 11:52:19;;;;;;;5.82;0.90;;;;;;;19.41;53.96;100676.41;4811617;29;20034;-75